sensor_id;sensor_type;location;lat;lon;timestamp;P1;durP1;ratioP1;P2;durP2;ratioP2
77736;SDS011;66903;59.926;30.404;2023-07-20T00:04:41;2.95;;;0.80;;
77736;SDS011;66903;59.926;30.404;2023-07-20T00:09:42;2.33;;;0.68;;
77736;SDS011;66903;59.926;30.404;2023-07-20T00:14:42;1.50;;;0.65;;
77736;SDS011;66903;59.926;30.404;2023-07-20T00:19:43;3.28;;;0.80;;
77736;SDS011;66903;59.926;30.404;2023-07-20T00:24:43;1.77;;;0.80;;
77736;SDS011;66903;59.926;30.404;2023-07-20T00:29:44;2.00;;;0.65;;
77736;SDS011;66903;59.926;30.404;2023-07-20T00:34:45;3.30;;;0.90;;
77736;SDS011;66903;59.926;30.404;2023-07-20T00:39:45;2.75;;;0.93;;
77736;SDS011;66903;59.926;30.404;2023-07-20T00:44:46;3.20;;;0.70;;
77736;SDS011;66903;59.926;30.404;2023-07-20T00:49:46;4.35;;;0.90;;
77736;SDS011;66903;59.926;30.404;2023-07-20T00:54:47;3.30;;;0.65;;
77736;SDS011;66903;59.926;30.404;2023-07-20T00:59:48;2.95;;;0.70;;
77736;SDS011;66903;59.926;30.404;2023-07-20T01:04:49;3.67;;;0.80;;
77736;SDS011;66903;59.926;30.404;2023-07-20T01:09:56;2.80;;;0.70;;
77736;SDS011;66903;59.926;30.404;2023-07-20T01:15:14;2.00;;;0.63;;
77736;SDS011;66903;59.926;30.404;2023-07-20T01:20:15;2.20;;;0.60;;
77736;SDS011;66903;59.926;30.404;2023-07-20T01:36:24;2.72;;;0.80;;
77736;SDS011;66903;59.926;30.404;2023-07-20T01:41:28;4.15;;;0.90;;
77736;SDS011;66903;59.926;30.404;2023-07-20T01:46:28;2.72;;;1.33;;
77736;SDS011;66903;59.926;30.404;2023-07-20T01:51:29;2.88;;;0.70;;
77736;SDS011;66903;59.926;30.404;2023-07-20T01:56:29;3.80;;;1.02;;
77736;SDS011;66903;59.926;30.404;2023-07-20T02:01:30;2.30;;;0.70;;
77736;SDS011;66903;59.926;30.404;2023-07-20T02:06:31;2.95;;;0.70;;
77736;SDS011;66903;59.926;30.404;2023-07-20T02:11:32;2.03;;;0.70;;
77736;SDS011;66903;59.926;30.404;2023-07-20T02:16:32;2.97;;;1.10;;
77736;SDS011;66903;59.926;30.404;2023-07-20T02:21:33;3.45;;;0.55;;
77736;SDS011;66903;59.926;30.404;2023-07-20T02:26:34;3.42;;;0.90;;
77736;SDS011;66903;59.926;30.404;2023-07-20T02:31:34;2.70;;;0.90;;
77736;SDS011;66903;59.926;30.404;2023-07-20T02:36:37;6.25;;;0.90;;
77736;SDS011;66903;59.926;30.404;2023-07-20T02:41:38;2.90;;;0.73;;
77736;SDS011;66903;59.926;30.404;2023-07-20T02:46:38;2.92;;;0.80;;
77736;SDS011;66903;59.926;30.404;2023-07-20T02:51:39;6.53;;;0.77;;
77736;SDS011;66903;59.926;30.404;2023-07-20T02:56:39;3.00;;;0.80;;
77736;SDS011;66903;59.926;30.404;2023-07-20T03:01:40;2.38;;;0.80;;
77736;SDS011;66903;59.926;30.404;2023-07-20T03:06:42;1.95;;;0.70;;
77736;SDS011;66903;59.926;30.404;2023-07-20T03:11:43;3.03;;;0.82;;
77736;SDS011;66903;59.926;30.404;2023-07-20T03:16:44;2.53;;;0.80;;
77736;SDS011;66903;59.926;30.404;2023-07-20T03:21:44;2.47;;;0.80;;
77736;SDS011;66903;59.926;30.404;2023-07-20T03:26:45;2.00;;;0.73;;
77736;SDS011;66903;59.926;30.404;2023-07-20T03:31:45;2.13;;;0.80;;
77736;SDS011;66903;59.926;30.404;2023-07-20T03:36:46;2.22;;;0.75;;
77736;SDS011;66903;59.926;30.404;2023-07-20T03:41:47;2.80;;;0.80;;
77736;SDS011;66903;59.926;30.404;2023-07-20T03:46:48;4.32;;;0.90;;
77736;SDS011;66903;59.926;30.404;2023-07-20T03:51:48;2.85;;;0.85;;
77736;SDS011;66903;59.926;30.404;2023-07-20T03:56:49;2.75;;;0.80;;
77736;SDS011;66903;59.926;30.404;2023-07-20T04:01:49;3.63;;;0.90;;
77736;SDS011;66903;59.926;30.404;2023-07-20T04:06:50;3.38;;;0.80;;
77736;SDS011;66903;59.926;30.404;2023-07-20T04:11:50;3.25;;;0.90;;
77736;SDS011;66903;59.926;30.404;2023-07-20T04:16:51;2.78;;;0.77;;
77736;SDS011;66903;59.926;30.404;2023-07-20T04:21:51;2.15;;;0.70;;
77736;SDS011;66903;59.926;30.404;2023-07-20T04:26:52;3.47;;;0.82;;
77736;SDS011;66903;59.926;30.404;2023-07-20T04:31:52;2.15;;;0.68;;
77736;SDS011;66903;59.926;30.404;2023-07-20T04:36:53;2.95;;;0.93;;
77736;SDS011;66903;59.926;30.404;2023-07-20T04:41:53;3.25;;;0.93;;
77736;SDS011;66903;59.926;30.404;2023-07-20T04:46:54;4.28;;;0.82;;
77736;SDS011;66903;59.926;30.404;2023-07-20T04:51:54;2.70;;;0.80;;
77736;SDS011;66903;59.926;30.404;2023-07-20T04:56:55;4.13;;;0.82;;
77736;SDS011;66903;59.926;30.404;2023-07-20T05:01:56;3.20;;;1.00;;
77736;SDS011;66903;59.926;30.404;2023-07-20T05:06:56;2.88;;;0.75;;
77736;SDS011;66903;59.926;30.404;2023-07-20T05:11:57;2.47;;;0.80;;
77736;SDS011;66903;59.926;30.404;2023-07-20T05:16:57;2.40;;;0.80;;
77736;SDS011;66903;59.926;30.404;2023-07-20T05:21:58;1.83;;;0.60;;
77736;SDS011;66903;59.926;30.404;2023-07-20T05:26:59;2.80;;;0.95;;
77736;SDS011;66903;59.926;30.404;2023-07-20T05:31:59;3.80;;;0.80;;
77736;SDS011;66903;59.926;30.404;2023-07-20T05:37:00;2.42;;;0.80;;
77736;SDS011;66903;59.926;30.404;2023-07-20T05:42:00;2.63;;;0.68;;
77736;SDS011;66903;59.926;30.404;2023-07-20T05:47:01;3.10;;;0.95;;
77736;SDS011;66903;59.926;30.404;2023-07-20T05:52:02;2.35;;;0.80;;
77736;SDS011;66903;59.926;30.404;2023-07-20T05:57:03;3.22;;;1.15;;
77736;SDS011;66903;59.926;30.404;2023-07-20T06:02:04;2.38;;;0.80;;
77736;SDS011;66903;59.926;30.404;2023-07-20T06:07:06;2.95;;;0.90;;
77736;SDS011;66903;59.926;30.404;2023-07-20T06:12:08;2.85;;;0.90;;
77736;SDS011;66903;59.926;30.404;2023-07-20T06:17:09;2.78;;;0.80;;
77736;SDS011;66903;59.926;30.404;2023-07-20T06:22:09;2.47;;;0.80;;
77736;SDS011;66903;59.926;30.404;2023-07-20T06:27:10;1.95;;;0.80;;
77736;SDS011;66903;59.926;30.404;2023-07-20T06:32:12;4.88;;;0.80;;
77736;SDS011;66903;59.926;30.404;2023-07-20T06:37:13;2.28;;;0.85;;
77736;SDS011;66903;59.926;30.404;2023-07-20T06:42:14;2.40;;;0.80;;
77736;SDS011;66903;59.926;30.404;2023-07-20T06:47:14;2.90;;;0.95;;
77736;SDS011;66903;59.926;30.404;2023-07-20T06:52:15;2.33;;;0.70;;
77736;SDS011;66903;59.926;30.404;2023-07-20T06:57:15;3.45;;;0.80;;
77736;SDS011;66903;59.926;30.404;2023-07-20T07:02:16;5.40;;;1.10;;
77736;SDS011;66903;59.926;30.404;2023-07-20T07:07:17;5.03;;;0.73;;
77736;SDS011;66903;59.926;30.404;2023-07-20T07:12:17;2.30;;;0.88;;
77736;SDS011;66903;59.926;30.404;2023-07-20T07:17:18;3.25;;;0.52;;
77736;SDS011;66903;59.926;30.404;2023-07-20T07:22:19;2.13;;;0.60;;
77736;SDS011;66903;59.926;30.404;2023-07-20T07:27:19;1.90;;;0.60;;
77736;SDS011;66903;59.926;30.404;2023-07-20T07:32:20;5.10;;;0.88;;
77736;SDS011;66903;59.926;30.404;2023-07-20T07:37:20;2.05;;;0.57;;
77736;SDS011;66903;59.926;30.404;2023-07-20T07:42:21;1.58;;;0.40;;
77736;SDS011;66903;59.926;30.404;2023-07-20T07:47:21;2.17;;;0.55;;
77736;SDS011;66903;59.926;30.404;2023-07-20T07:52:22;1.70;;;0.70;;
77736;SDS011;66903;59.926;30.404;2023-07-20T07:57:22;7.40;;;0.90;;
77736;SDS011;66903;59.926;30.404;2023-07-20T08:02:23;4.15;;;0.60;;
77736;SDS011;66903;59.926;30.404;2023-07-20T08:07:23;4.70;;;1.00;;
77736;SDS011;66903;59.926;30.404;2023-07-20T08:12:24;0.95;;;0.50;;
77736;SDS011;66903;59.926;30.404;2023-07-20T08:17:25;1.33;;;0.60;;
77736;SDS011;66903;59.926;30.404;2023-07-20T08:22:25;2.25;;;0.60;;
77736;SDS011;66903;59.926;30.404;2023-07-20T08:27:26;1.73;;;0.60;;
77736;SDS011;66903;59.926;30.404;2023-07-20T08:32:26;3.00;;;0.63;;
77736;SDS011;66903;59.926;30.404;2023-07-20T08:37:27;2.97;;;0.60;;
77736;SDS011;66903;59.926;30.404;2023-07-20T08:42:27;1.63;;;0.50;;
77736;SDS011;66903;59.926;30.404;2023-07-20T08:47:29;0.65;;;0.45;;
77736;SDS011;66903;59.926;30.404;2023-07-20T08:52:29;1.23;;;0.40;;
77736;SDS011;66903;59.926;30.404;2023-07-20T08:57:32;1.77;;;0.60;;
77736;SDS011;66903;59.926;30.404;2023-07-20T09:02:35;1.75;;;0.50;;
77736;SDS011;66903;59.926;30.404;2023-07-20T09:12:40;3.50;;;0.50;;
77736;SDS011;66903;59.926;30.404;2023-07-20T09:17:48;0.93;;;0.40;;
77736;SDS011;66903;59.926;30.404;2023-07-20T09:22:50;0.85;;;0.38;;
77736;SDS011;66903;59.926;30.404;2023-07-20T09:27:52;2.20;;;0.85;;
77736;SDS011;66903;59.926;30.404;2023-07-20T09:32:54;1.33;;;0.50;;
77736;SDS011;66903;59.926;30.404;2023-07-20T09:37:57;1.58;;;0.70;;
77736;SDS011;66903;59.926;30.404;2023-07-20T09:42:59;0.75;;;0.30;;
77736;SDS011;66903;59.926;30.404;2023-07-20T09:48:04;1.73;;;0.57;;
77736;SDS011;66903;59.926;30.404;2023-07-20T09:53:06;2.03;;;0.60;;
77736;SDS011;66903;59.926;30.404;2023-07-20T09:58:08;1.90;;;0.40;;
77736;SDS011;66903;59.926;30.404;2023-07-20T10:03:09;0.65;;;0.40;;
77736;SDS011;66903;59.926;30.404;2023-07-20T10:08:12;0.45;;;0.40;;
77736;SDS011;66903;59.926;30.404;2023-07-20T10:13:17;1.05;;;0.40;;
77736;SDS011;66903;59.926;30.404;2023-07-20T10:23:48;3.25;;;0.40;;
77736;SDS011;66903;59.926;30.404;2023-07-20T10:28:49;1.33;;;0.52;;
77736;SDS011;66903;59.926;30.404;2023-07-20T10:33:51;1.52;;;0.50;;
77736;SDS011;66903;59.926;30.404;2023-07-20T10:38:53;2.42;;;0.50;;
77736;SDS011;66903;59.926;30.404;2023-07-20T10:43:57;5.38;;;0.68;;
77736;SDS011;66903;59.926;30.404;2023-07-20T10:49:02;3.28;;;0.68;;
77736;SDS011;66903;59.926;30.404;2023-07-20T11:04:59;3.83;;;0.50;;
77736;SDS011;66903;59.926;30.404;2023-07-20T11:09:53;1.50;;;0.63;;
77736;SDS011;66903;59.926;30.404;2023-07-20T11:15:13;4.78;;;0.70;;
77736;SDS011;66903;59.926;30.404;2023-07-20T11:20:14;3.35;;;0.70;;
77736;SDS011;66903;59.926;30.404;2023-07-20T11:25:16;1.75;;;1.05;;
77736;SDS011;66903;59.926;30.404;2023-07-20T11:30:16;1.60;;;0.50;;
77736;SDS011;66903;59.926;30.404;2023-07-20T11:35:17;1.45;;;0.60;;
77736;SDS011;66903;59.926;30.404;2023-07-20T11:40:17;1.20;;;0.32;;
77736;SDS011;66903;59.926;30.404;2023-07-20T11:45:19;2.67;;;0.50;;
77736;SDS011;66903;59.926;30.404;2023-07-20T11:50:20;3.85;;;0.50;;
77736;SDS011;66903;59.926;30.404;2023-07-20T11:55:20;1.50;;;0.60;;
77736;SDS011;66903;59.926;30.404;2023-07-20T12:00:24;1.88;;;0.60;;
77736;SDS011;66903;59.926;30.404;2023-07-20T12:05:25;0.95;;;0.47;;
77736;SDS011;66903;59.926;30.404;2023-07-20T12:10:28;1.45;;;0.60;;
77736;SDS011;66903;59.926;30.404;2023-07-20T12:15:29;0.68;;;0.30;;
77736;SDS011;66903;59.926;30.404;2023-07-20T12:25:45;1.95;;;0.50;;
77736;SDS011;66903;59.926;30.404;2023-07-20T12:30:47;3.60;;;0.35;;
77736;SDS011;66903;59.926;30.404;2023-07-20T12:35:56;1.13;;;0.40;;
77736;SDS011;66903;59.926;30.404;2023-07-20T12:41:00;1.60;;;0.40;;
77736;SDS011;66903;59.926;30.404;2023-07-20T12:46:01;1.38;;;0.50;;
77736;SDS011;66903;59.926;30.404;2023-07-20T12:51:02;1.45;;;0.50;;
77736;SDS011;66903;59.926;30.404;2023-07-20T12:56:04;1.27;;;0.50;;
77736;SDS011;66903;59.926;30.404;2023-07-20T13:01:05;1.33;;;0.40;;
77736;SDS011;66903;59.926;30.404;2023-07-20T13:06:05;0.85;;;0.40;;
77736;SDS011;66903;59.926;30.404;2023-07-20T13:11:06;1.58;;;0.55;;
77736;SDS011;66903;59.926;30.404;2023-07-20T13:16:06;1.65;;;0.65;;
77736;SDS011;66903;59.926;30.404;2023-07-20T13:21:07;4.30;;;0.60;;
77736;SDS011;66903;59.926;30.404;2023-07-20T13:26:10;1.77;;;0.60;;
77736;SDS011;66903;59.926;30.404;2023-07-20T13:31:11;3.03;;;0.60;;
77736;SDS011;66903;59.926;30.404;2023-07-20T13:36:11;2.33;;;0.60;;
77736;SDS011;66903;59.926;30.404;2023-07-20T13:41:12;3.10;;;0.80;;
77736;SDS011;66903;59.926;30.404;2023-07-20T13:46:12;1.45;;;0.50;;
77736;SDS011;66903;59.926;30.404;2023-07-20T13:51:13;1.17;;;0.40;;
77736;SDS011;66903;59.926;30.404;2023-07-20T13:56:14;1.08;;;0.40;;
77736;SDS011;66903;59.926;30.404;2023-07-20T14:01:14;5.18;;;0.60;;
77736;SDS011;66903;59.926;30.404;2023-07-20T14:06:15;3.60;;;1.05;;
77736;SDS011;66903;59.926;30.404;2023-07-20T14:11:16;5.22;;;0.43;;
77736;SDS011;66903;59.926;30.404;2023-07-20T14:16:22;0.57;;;0.40;;
77736;SDS011;66903;59.926;30.404;2023-07-20T14:21:22;3.20;;;0.50;;
77736;SDS011;66903;59.926;30.404;2023-07-20T14:26:23;1.48;;;0.45;;
77736;SDS011;66903;59.926;30.404;2023-07-20T14:31:24;1.13;;;0.45;;
77736;SDS011;66903;59.926;30.404;2023-07-20T14:36:25;1.00;;;0.40;;
77736;SDS011;66903;59.926;30.404;2023-07-20T14:41:25;2.97;;;0.60;;
77736;SDS011;66903;59.926;30.404;2023-07-20T14:46:26;1.55;;;0.50;;
77736;SDS011;66903;59.926;30.404;2023-07-20T14:51:27;2.38;;;0.50;;
77736;SDS011;66903;59.926;30.404;2023-07-20T14:56:31;3.85;;;1.33;;
77736;SDS011;66903;59.926;30.404;2023-07-20T15:01:32;4.53;;;0.50;;
77736;SDS011;66903;59.926;30.404;2023-07-20T15:06:32;2.33;;;0.57;;
77736;SDS011;66903;59.926;30.404;2023-07-20T15:11:33;3.67;;;0.60;;
77736;SDS011;66903;59.926;30.404;2023-07-20T15:16:34;2.20;;;0.50;;
77736;SDS011;66903;59.926;30.404;2023-07-20T15:21:35;3.08;;;0.70;;
77736;SDS011;66903;59.926;30.404;2023-07-20T15:26:36;2.53;;;0.47;;
77736;SDS011;66903;59.926;30.404;2023-07-20T15:31:36;1.75;;;0.50;;
77736;SDS011;66903;59.926;30.404;2023-07-20T15:36:37;5.40;;;0.50;;
77736;SDS011;66903;59.926;30.404;2023-07-20T15:41:38;2.72;;;0.50;;
77736;SDS011;66903;59.926;30.404;2023-07-20T15:46:43;1.95;;;0.50;;
77736;SDS011;66903;59.926;30.404;2023-07-20T15:51:45;2.55;;;0.70;;
77736;SDS011;66903;59.926;30.404;2023-07-20T15:56:46;2.35;;;0.60;;
77736;SDS011;66903;59.926;30.404;2023-07-20T16:01:47;1.60;;;0.50;;
77736;SDS011;66903;59.926;30.404;2023-07-20T16:06:47;3.53;;;0.80;;
77736;SDS011;66903;59.926;30.404;2023-07-20T16:11:48;2.17;;;0.65;;
77736;SDS011;66903;59.926;30.404;2023-07-20T16:16:48;2.80;;;0.65;;
77736;SDS011;66903;59.926;30.404;2023-07-20T16:21:49;2.03;;;0.60;;
77736;SDS011;66903;59.926;30.404;2023-07-20T16:26:49;4.38;;;0.88;;
77736;SDS011;66903;59.926;30.404;2023-07-20T16:31:51;2.13;;;0.82;;
77736;SDS011;66903;59.926;30.404;2023-07-20T16:36:51;1.77;;;0.50;;
77736;SDS011;66903;59.926;30.404;2023-07-20T16:41:53;2.35;;;0.75;;
77736;SDS011;66903;59.926;30.404;2023-07-20T16:46:54;2.38;;;0.70;;
77736;SDS011;66903;59.926;30.404;2023-07-20T16:51:54;2.72;;;0.90;;
77736;SDS011;66903;59.926;30.404;2023-07-20T16:56:55;2.42;;;0.80;;
77736;SDS011;66903;59.926;30.404;2023-07-20T17:01:56;3.20;;;0.90;;
77736;SDS011;66903;59.926;30.404;2023-07-20T17:06:56;3.30;;;0.60;;
77736;SDS011;66903;59.926;30.404;2023-07-20T17:11:58;1.73;;;0.60;;
77736;SDS011;66903;59.926;30.404;2023-07-20T17:16:59;2.20;;;0.60;;
77736;SDS011;66903;59.926;30.404;2023-07-20T17:22:00;2.00;;;0.65;;
77736;SDS011;66903;59.926;30.404;2023-07-20T17:27:00;2.40;;;0.70;;
77736;SDS011;66903;59.926;30.404;2023-07-20T17:32:01;1.80;;;0.60;;
77736;SDS011;66903;59.926;30.404;2023-07-20T17:37:01;4.45;;;1.33;;
77736;SDS011;66903;59.926;30.404;2023-07-20T17:42:02;54.20;;;13.38;;
77736;SDS011;66903;59.926;30.404;2023-07-20T17:47:03;93.53;;;28.38;;
77736;SDS011;66903;59.926;30.404;2023-07-20T17:52:04;61.88;;;18.80;;
77736;SDS011;66903;59.926;30.404;2023-07-20T17:57:05;35.88;;;12.50;;
77736;SDS011;66903;59.926;30.404;2023-07-20T18:02:06;29.15;;;8.98;;
77736;SDS011;66903;59.926;30.404;2023-07-20T18:07:06;17.80;;;6.50;;
77736;SDS011;66903;59.926;30.404;2023-07-20T18:12:07;27.75;;;8.85;;
77736;SDS011;66903;59.926;30.404;2023-07-20T18:17:08;21.25;;;6.93;;
77736;SDS011;66903;59.926;30.404;2023-07-20T18:22:09;14.75;;;5.72;;
77736;SDS011;66903;59.926;30.404;2023-07-20T18:27:09;11.60;;;4.43;;
77736;SDS011;66903;59.926;30.404;2023-07-20T18:32:10;11.07;;;3.33;;
77736;SDS011;66903;59.926;30.404;2023-07-20T18:37:10;10.70;;;2.92;;
77736;SDS011;66903;59.926;30.404;2023-07-20T18:42:11;7.68;;;3.15;;
77736;SDS011;66903;59.926;30.404;2023-07-20T18:47:12;12.50;;;3.22;;
77736;SDS011;66903;59.926;30.404;2023-07-20T18:52:13;14.20;;;3.78;;
77736;SDS011;66903;59.926;30.404;2023-07-20T18:57:14;9.90;;;3.22;;
77736;SDS011;66903;59.926;30.404;2023-07-20T19:02:14;6.88;;;1.95;;
77736;SDS011;66903;59.926;30.404;2023-07-20T19:07:15;6.38;;;1.98;;
77736;SDS011;66903;59.926;30.404;2023-07-20T19:12:15;5.82;;;1.95;;
77736;SDS011;66903;59.926;30.404;2023-07-20T19:17:16;5.00;;;1.70;;
77736;SDS011;66903;59.926;30.404;2023-07-20T19:22:16;5.90;;;1.42;;
77736;SDS011;66903;59.926;30.404;2023-07-20T19:27:17;5.53;;;1.67;;
77736;SDS011;66903;59.926;30.404;2023-07-20T19:32:18;4.38;;;1.30;;
77736;SDS011;66903;59.926;30.404;2023-07-20T19:37:18;5.95;;;2.00;;
77736;SDS011;66903;59.926;30.404;2023-07-20T19:42:19;3.03;;;1.10;;
77736;SDS011;66903;59.926;30.404;2023-07-20T19:47:20;4.80;;;1.17;;
77736;SDS011;66903;59.926;30.404;2023-07-20T19:52:23;4.03;;;0.90;;
77736;SDS011;66903;59.926;30.404;2023-07-20T19:57:23;3.78;;;1.00;;
77736;SDS011;66903;59.926;30.404;2023-07-20T20:02:24;2.40;;;0.68;;
77736;SDS011;66903;59.926;30.404;2023-07-20T20:07:25;3.83;;;0.85;;
77736;SDS011;66903;59.926;30.404;2023-07-20T20:12:26;5.68;;;1.00;;
77736;SDS011;66903;59.926;30.404;2023-07-20T20:17:26;4.20;;;0.80;;
77736;SDS011;66903;59.926;30.404;2023-07-20T20:22:27;2.95;;;0.88;;
77736;SDS011;66903;59.926;30.404;2023-07-20T20:27:27;2.58;;;0.95;;
77736;SDS011;66903;59.926;30.404;2023-07-20T20:32:28;5.50;;;1.15;;
77736;SDS011;66903;59.926;30.404;2023-07-20T20:37:29;2.55;;;0.70;;
77736;SDS011;66903;59.926;30.404;2023-07-20T20:42:29;7.15;;;1.15;;
77736;SDS011;66903;59.926;30.404;2023-07-20T20:47:30;5.28;;;1.00;;
77736;SDS011;66903;59.926;30.404;2023-07-20T20:52:34;7.43;;;1.02;;
77736;SDS011;66903;59.926;30.404;2023-07-20T20:57:35;3.90;;;0.90;;
77736;SDS011;66903;59.926;30.404;2023-07-20T21:02:36;3.60;;;0.90;;
77736;SDS011;66903;59.926;30.404;2023-07-20T21:07:37;1.40;;;0.60;;
77736;SDS011;66903;59.926;30.404;2023-07-20T21:12:39;3.25;;;1.00;;
77736;SDS011;66903;59.926;30.404;2023-07-20T21:17:42;2.10;;;0.70;;
77736;SDS011;66903;59.926;30.404;2023-07-20T21:22:43;8.23;;;0.77;;
77736;SDS011;66903;59.926;30.404;2023-07-20T21:27:43;1.92;;;0.80;;
77736;SDS011;66903;59.926;30.404;2023-07-20T21:32:44;3.35;;;0.80;;
77736;SDS011;66903;59.926;30.404;2023-07-20T21:37:45;2.55;;;0.73;;
77736;SDS011;66903;59.926;30.404;2023-07-20T21:42:45;2.97;;;0.80;;
77736;SDS011;66903;59.926;30.404;2023-07-20T21:47:46;2.10;;;0.63;;
77736;SDS011;66903;59.926;30.404;2023-07-20T21:52:48;1.15;;;0.57;;
77736;SDS011;66903;59.926;30.404;2023-07-20T21:57:48;3.92;;;0.70;;
77736;SDS011;66903;59.926;30.404;2023-07-20T22:02:49;3.20;;;0.80;;
77736;SDS011;66903;59.926;30.404;2023-07-20T22:07:50;2.13;;;0.73;;
77736;SDS011;66903;59.926;30.404;2023-07-20T22:12:50;3.90;;;0.88;;
77736;SDS011;66903;59.926;30.404;2023-07-20T22:17:51;4.40;;;0.80;;
77736;SDS011;66903;59.926;30.404;2023-07-20T22:22:53;2.33;;;0.77;;
77736;SDS011;66903;59.926;30.404;2023-07-20T22:27:54;4.53;;;1.13;;
77736;SDS011;66903;59.926;30.404;2023-07-20T22:32:55;2.83;;;1.13;;
77736;SDS011;66903;59.926;30.404;2023-07-20T22:37:55;2.22;;;0.85;;
77736;SDS011;66903;59.926;30.404;2023-07-20T22:42:56;3.28;;;0.90;;
77736;SDS011;66903;59.926;30.404;2023-07-20T22:47:57;2.08;;;0.70;;
77736;SDS011;66903;59.926;30.404;2023-07-20T22:52:57;1.92;;;0.60;;
77736;SDS011;66903;59.926;30.404;2023-07-20T22:57:58;2.53;;;0.73;;
77736;SDS011;66903;59.926;30.404;2023-07-20T23:02:58;3.63;;;1.00;;
77736;SDS011;66903;59.926;30.404;2023-07-20T23:07:59;2.67;;;0.80;;
77736;SDS011;66903;59.926;30.404;2023-07-20T23:12:59;1.52;;;0.60;;
77736;SDS011;66903;59.926;30.404;2023-07-20T23:18:01;3.33;;;1.05;;
77736;SDS011;66903;59.926;30.404;2023-07-20T23:23:02;2.78;;;0.90;;
77736;SDS011;66903;59.926;30.404;2023-07-20T23:28:02;3.10;;;0.65;;
77736;SDS011;66903;59.926;30.404;2023-07-20T23:33:03;2.72;;;0.90;;
77736;SDS011;66903;59.926;30.404;2023-07-20T23:38:04;2.05;;;0.70;;
77736;SDS011;66903;59.926;30.404;2023-07-20T23:43:05;2.80;;;0.77;;
77736;SDS011;66903;59.926;30.404;2023-07-20T23:48:06;4.60;;;0.90;;
77736;SDS011;66903;59.926;30.404;2023-07-20T23:53:09;3.20;;;0.85;;
77736;SDS011;66903;59.926;30.404;2023-07-20T23:58:10;1.90;;;0.73;;
